createdAt,value
2017-07-03T00:00:18.440Z,13.4
2017-07-03T00:00:56.210Z,13.3
2017-07-03T00:01:34.076Z,13.3
2017-07-03T00:02:12.046Z,13.2
2017-07-03T00:02:50.119Z,13.4
2017-07-03T00:03:27.684Z,13.4
2017-07-03T00:04:05.454Z,13.4
2017-07-03T00:04:43.025Z,13.4
2017-07-03T00:05:20.690Z,13.4
2017-07-03T00:05:58.258Z,13.4
2017-07-03T00:06:36.026Z,13.2
2017-07-03T00:07:14.097Z,13.4
2017-07-03T00:07:52.066Z,13.3
2017-07-03T00:08:29.733Z,13.3
2017-07-03T00:09:07.598Z,13.3
2017-07-03T00:09:45.266Z,13.3
2017-07-03T00:10:23.531Z,13.3
2017-07-03T00:11:01.605Z,13.3
2017-07-03T00:11:39.471Z,13.4
2017-07-03T00:12:17.333Z,13.3
2017-07-03T00:12:55.295Z,13.3
2017-07-03T00:13:33.370Z,13.2
2017-07-03T00:14:11.130Z,13.3
2017-07-03T00:14:49.104Z,13.3
2017-07-03T00:15:26.874Z,13.2
2017-07-03T00:16:04.743Z,13.2
2017-07-03T00:16:42.405Z,13.2
2017-07-03T00:17:20.076Z,13.3
2017-07-03T00:17:58.144Z,13.3
2017-07-03T00:18:36.015Z,13.3
2017-07-03T00:19:13.887Z,13.2
2017-07-03T00:19:51.756Z,13.2
2017-07-03T00:20:29.733Z,13.2
2017-07-03T00:21:07.598Z,13.2
2017-07-03T00:21:45.465Z,13.2
2017-07-03T00:22:23.434Z,13.2
2017-07-03T00:23:01.201Z,13.2
2017-07-03T00:23:39.067Z,13.2
2017-07-03T00:24:16.742Z,13.2
2017-07-03T00:24:54.827Z,13.2
2017-07-03T00:25:32.590Z,13.2
2017-07-03T00:26:10.251Z,13.2
2017-07-03T00:26:48.326Z,13.2
2017-07-03T00:27:26.005Z,13.1
2017-07-03T00:28:03.971Z,13.2
2017-07-03T00:28:41.941Z,13.2
2017-07-03T00:29:19.611Z,13.2
2017-07-03T00:29:57.575Z,13.1
2017-07-03T00:30:35.442Z,13.2
2017-07-03T00:31:13.321Z,13.2
2017-07-03T00:31:51.194Z,13.2
2017-07-03T00:32:28.758Z,13.1
2017-07-03T00:33:06.625Z,13.1
2017-07-03T00:33:44.608Z,13.1
2017-07-03T00:34:22.469Z,13.1
2017-07-03T00:35:00.135Z,13.1
2017-07-03T00:35:37.821Z,13.1
2017-07-03T00:36:15.284Z,13.0
2017-07-03T00:36:53.055Z,13.1
2017-07-03T00:37:31.118Z,13.1
2017-07-03T00:38:09.093Z,13.0
2017-07-03T00:38:46.954Z,13.0
2017-07-03T00:39:25.125Z,13.0
2017-07-03T00:40:03.188Z,13.0
2017-07-03T00:40:40.959Z,13.0
2017-07-03T00:41:18.929Z,13.0
2017-07-03T00:41:57.103Z,13.0
2017-07-03T00:42:35.280Z,13.0
2017-07-03T00:43:13.048Z,13.0
2017-07-03T00:43:51.216Z,12.9
2017-07-03T00:44:29.198Z,13.0
2017-07-03T00:45:07.170Z,12.9
2017-07-03T00:45:45.142Z,13.0
2017-07-03T00:46:23.109Z,13.0
2017-07-03T00:47:01.091Z,13.0
2017-07-03T00:47:38.755Z,13.0
2017-07-03T00:48:16.719Z,12.9
2017-07-03T00:48:54.494Z,12.9
2017-07-03T00:49:32.265Z,12.9
2017-07-03T00:50:10.330Z,12.9
2017-07-03T00:50:48.400Z,13.0
2017-07-03T00:51:26.176Z,13.0
2017-07-03T00:52:04.045Z,12.9
2017-07-03T00:52:42.011Z,13.0
2017-07-03T00:53:19.884Z,12.9
2017-07-03T00:53:57.851Z,12.9
2017-07-03T00:54:35.815Z,12.8
2017-07-03T00:55:13.792Z,13.0
2017-07-03T00:55:51.366Z,12.9
2017-07-03T00:56:29.534Z,13.0
2017-07-03T00:57:07.397Z,12.8
2017-07-03T00:57:45.371Z,12.8
2017-07-03T00:58:23.243Z,12.8
2017-07-03T00:59:01.107Z,12.8
2017-07-03T00:59:39.172Z,12.9
2017-07-03T01:00:16.939Z,12.8
2017-07-03T01:00:54.906Z,12.8
2017-07-03T01:01:32.573Z,12.8
2017-07-03T01:02:10.144Z,12.8
2017-07-03T01:02:48.021Z,12.8
2017-07-03T01:03:26.084Z,12.9
2017-07-03T01:04:03.752Z,12.8
2017-07-03T01:04:41.820Z,12.8
2017-07-03T01:05:19.584Z,12.8
2017-07-03T01:05:57.548Z,12.8
2017-07-03T01:06:35.222Z,12.8
2017-07-03T01:07:13.289Z,12.8
2017-07-03T01:07:51.262Z,12.8
2017-07-03T01:08:28.935Z,12.7
2017-07-03T01:09:06.505Z,12.8
2017-07-03T01:09:44.273Z,12.7
2017-07-03T01:10:22.340Z,12.8
2017-07-03T01:11:00.108Z,12.7
2017-07-03T01:11:37.673Z,12.7
2017-07-03T01:12:15.745Z,12.8
2017-07-03T01:12:53.420Z,12.7
2017-07-03T01:13:31.186Z,12.7
2017-07-03T01:14:09.346Z,12.7
2017-07-03T01:14:47.415Z,12.7
2017-07-03T01:15:25.281Z,12.7
2017-07-03T01:16:03.050Z,12.7
2017-07-03T01:16:41.021Z,12.8
2017-07-03T01:17:19.088Z,12.7
2017-07-03T01:17:56.960Z,12.7
2017-07-03T01:18:34.926Z,12.6
2017-07-03T01:19:12.490Z,12.6
2017-07-03T01:19:50.669Z,12.7
2017-07-03T01:20:28.536Z,12.7
2017-07-03T01:21:06.232Z,12.6
2017-07-03T01:21:43.998Z,12.7
2017-07-03T01:22:21.771Z,12.7
2017-07-03T01:22:59.645Z,12.7
2017-07-03T01:23:37.711Z,12.7
2017-07-03T01:24:15.682Z,12.6
2017-07-03T01:24:53.651Z,12.6
2017-07-03T01:25:31.717Z,12.6
2017-07-03T01:26:09.587Z,12.7
2017-07-03T01:26:47.659Z,12.6
2017-07-03T01:27:25.430Z,12.5
2017-07-03T01:28:03.399Z,12.6
2017-07-03T01:28:41.065Z,12.6
2017-07-03T01:29:18.834Z,12.6
2017-07-03T01:29:56.604Z,12.6
2017-07-03T01:30:34.872Z,12.6
2017-07-03T01:31:12.446Z,12.5
2017-07-03T01:31:50.114Z,12.6
2017-07-03T01:32:27.980Z,12.6
2017-07-03T01:33:05.852Z,12.5
2017-07-03T01:33:43.924Z,12.6
2017-07-03T01:34:21.591Z,12.5
2017-07-03T01:34:59.856Z,12.6
2017-07-03T01:35:37.846Z,12.5
2017-07-03T01:36:15.920Z,12.5
2017-07-03T01:36:53.788Z,12.5
2017-07-03T01:37:31.756Z,12.6
2017-07-03T01:38:09.331Z,12.4
2017-07-03T01:38:47.296Z,12.5
2017-07-03T01:39:25.470Z,12.5
2017-07-03T01:40:03.243Z,12.5
2017-07-03T01:40:41.308Z,12.5
2017-07-03T01:41:18.874Z,12.6
2017-07-03T01:41:56.643Z,12.4
2017-07-03T01:42:34.619Z,12.4
2017-07-03T01:43:12.387Z,12.4
2017-07-03T01:43:50.056Z,12.5
2017-07-03T01:44:28.126Z,12.5
2017-07-03T01:45:05.792Z,12.3
2017-07-03T01:45:43.953Z,12.4
2017-07-03T01:46:23.635Z,12.5
2017-07-03T01:47:01.803Z,12.5
2017-07-03T01:47:39.667Z,12.4
2017-07-03T01:48:17.538Z,12.4
2017-07-03T01:48:55.121Z,12.6
2017-07-03T01:49:32.886Z,12.5
2017-07-03T01:50:10.849Z,12.4
2017-07-03T01:50:48.425Z,12.4
2017-07-03T01:51:26.394Z,12.5
2017-07-03T01:52:04.261Z,12.4
2017-07-03T01:52:42.031Z,12.4
2017-07-03T01:53:19.818Z,12.4
2017-07-03T01:53:57.667Z,12.5
2017-07-03T01:54:35.236Z,12.4
2017-07-03T01:55:12.902Z,12.4
2017-07-03T01:55:50.374Z,12.4
2017-07-03T01:56:28.248Z,12.4
2017-07-03T01:57:05.820Z,12.4
2017-07-03T01:57:43.691Z,12.4
2017-07-03T01:58:21.860Z,12.4
2017-07-03T01:58:59.935Z,12.4
2017-07-03T01:59:37.910Z,12.3
2017-07-03T02:00:15.879Z,12.3
2017-07-03T02:00:53.546Z,12.3
2017-07-03T02:01:31.418Z,12.4
2017-07-03T02:02:09.287Z,12.3
2017-07-03T02:02:47.153Z,12.3
2017-07-03T02:03:25.226Z,12.4
2017-07-03T02:04:03.094Z,12.2
2017-07-03T02:04:41.161Z,12.2
2017-07-03T02:05:19.138Z,12.3
2017-07-03T02:05:57.009Z,12.2
2017-07-03T02:06:34.991Z,12.3
2017-07-03T02:07:12.556Z,12.3
2017-07-03T02:07:50.234Z,12.2
2017-07-03T02:08:28.000Z,12.2
2017-07-03T02:09:05.669Z,12.2
2017-07-03T02:09:43.339Z,12.2
2017-07-03T02:10:21.011Z,12.2
2017-07-03T02:10:58.889Z,12.2
2017-07-03T02:11:36.660Z,12.3
2017-07-03T02:12:14.426Z,12.2
2017-07-03T02:12:52.193Z,12.3
2017-07-03T02:13:29.957Z,12.2
2017-07-03T02:14:07.727Z,12.2
2017-07-03T02:14:45.406Z,12.3
2017-07-03T02:15:22.975Z,12.2
2017-07-03T02:16:00.943Z,12.3
2017-07-03T02:16:38.924Z,12.2
2017-07-03T02:17:16.496Z,12.3
2017-07-03T02:17:54.182Z,12.2
2017-07-03T02:18:32.152Z,12.1
2017-07-03T02:19:10.217Z,12.2
2017-07-03T02:19:48.192Z,12.2
2017-07-03T02:20:26.061Z,12.2
2017-07-03T02:21:04.326Z,12.1
2017-07-03T02:21:42.504Z,12.2
2017-07-03T02:22:20.273Z,12.3
2017-07-03T02:22:58.249Z,12.1
2017-07-03T02:23:36.014Z,12.2
2017-07-03T02:24:13.900Z,12.2
2017-07-03T02:24:51.861Z,12.2
2017-07-03T02:25:29.528Z,12.2
2017-07-03T02:26:07.601Z,12.1
2017-07-03T02:26:45.474Z,12.2
2017-07-03T02:27:23.340Z,12.1
2017-07-03T02:28:01.115Z,12.2
2017-07-03T02:28:38.891Z,12.2
2017-07-03T02:29:16.654Z,12.2
2017-07-03T02:29:54.619Z,12.2
2017-07-03T02:30:32.690Z,12.1
2017-07-03T02:31:10.965Z,12.2
2017-07-03T02:31:48.829Z,12.2
2017-07-03T02:32:26.906Z,12.1
2017-07-03T02:33:04.986Z,12.2
2017-07-03T02:33:42.849Z,12.1
2017-07-03T02:34:20.632Z,12.1
2017-07-03T02:34:58.399Z,12.2
2017-07-03T02:35:36.374Z,12.0
2017-07-03T02:36:14.439Z,12.0
2017-07-03T02:36:52.213Z,12.0
2017-07-03T02:37:30.388Z,12.0
2017-07-03T02:38:08.056Z,11.9
2017-07-03T02:38:46.229Z,12.0
2017-07-03T02:39:23.997Z,12.0
2017-07-03T02:40:01.979Z,12.0
2017-07-03T02:40:39.847Z,12.1
2017-07-03T02:41:17.818Z,12.0
2017-07-03T02:41:55.593Z,12.0
2017-07-03T02:42:33.461Z,12.0
2017-07-03T02:43:11.029Z,12.0
2017-07-03T02:43:48.899Z,11.9
2017-07-03T02:44:26.766Z,12.0
2017-07-03T02:45:04.830Z,12.0
2017-07-03T02:45:42.700Z,12.0
2017-07-03T02:46:22.427Z,12.0
2017-07-03T02:47:00.296Z,12.0
2017-07-03T02:47:37.979Z,11.9
2017-07-03T02:48:15.856Z,11.9
2017-07-03T02:48:54.024Z,12.0
2017-07-03T02:49:32.095Z,12.0
2017-07-03T02:50:10.271Z,11.9
2017-07-03T02:50:48.137Z,12.0
2017-07-03T02:51:25.803Z,12.0
2017-07-03T02:52:03.770Z,11.9
2017-07-03T02:52:41.548Z,12.0
2017-07-03T02:53:19.222Z,11.9
2017-07-03T02:53:57.199Z,11.9
2017-07-03T02:54:35.361Z,11.8
2017-07-03T02:55:13.440Z,11.9
2017-07-03T02:55:51.606Z,11.9
2017-07-03T02:56:29.697Z,11.8
2017-07-03T02:57:07.677Z,11.8
2017-07-03T02:57:45.553Z,11.8
2017-07-03T02:58:23.319Z,11.8
2017-07-03T02:59:01.091Z,11.8
2017-07-03T02:59:38.961Z,11.7
2017-07-03T03:00:16.730Z,11.9
2017-07-03T03:00:54.703Z,11.7
2017-07-03T03:01:33.095Z,11.7
2017-07-03T03:02:10.970Z,11.7
2017-07-03T03:02:48.342Z,11.8
2017-07-03T03:03:26.412Z,11.7
2017-07-03T03:04:04.199Z,11.8
2017-07-03T03:04:42.065Z,11.8
2017-07-03T03:05:19.839Z,11.7
2017-07-03T03:05:57.814Z,11.7
2017-07-03T03:06:35.384Z,11.8
2017-07-03T03:07:13.257Z,11.7
2017-07-03T03:07:51.131Z,11.7
2017-07-03T03:08:29.213Z,11.8
2017-07-03T03:09:07.381Z,11.8
2017-07-03T03:09:45.152Z,11.7
2017-07-03T03:10:23.127Z,11.8
2017-07-03T03:11:01.125Z,11.8
2017-07-03T03:11:39.092Z,11.8
2017-07-03T03:12:16.861Z,11.8
2017-07-03T03:12:54.938Z,11.8
2017-07-03T03:13:32.615Z,11.8
2017-07-03T03:14:10.783Z,11.7
2017-07-03T03:14:48.859Z,11.7
2017-07-03T03:15:26.636Z,11.8
2017-07-03T03:16:04.706Z,11.8
2017-07-03T03:16:42.785Z,11.7
2017-07-03T03:17:20.756Z,11.7
2017-07-03T03:17:58.426Z,11.8
2017-07-03T03:18:35.909Z,11.7
2017-07-03T03:19:14.074Z,11.7
2017-07-03T03:19:52.150Z,11.7
2017-07-03T03:20:30.216Z,11.7
2017-07-03T03:21:08.193Z,11.7
2017-07-03T03:21:46.168Z,11.7
2017-07-03T03:22:23.936Z,11.7
2017-07-03T03:23:01.610Z,11.7
2017-07-03T03:23:39.785Z,11.6
2017-07-03T03:24:17.864Z,11.6
2017-07-03T03:24:55.933Z,11.6
2017-07-03T03:25:33.913Z,11.6
2017-07-03T03:26:11.700Z,11.6
2017-07-03T03:26:49.570Z,11.6
2017-07-03T03:27:27.544Z,11.6
2017-07-03T03:28:05.323Z,11.6
2017-07-03T03:28:43.202Z,11.7
2017-07-03T03:29:21.070Z,11.7
2017-07-03T03:29:59.043Z,11.6
2017-07-03T03:30:37.027Z,11.7
2017-07-03T03:31:14.694Z,11.6
2017-07-03T03:31:52.266Z,11.6
2017-07-03T03:32:30.045Z,11.6
2017-07-03T03:33:08.125Z,11.7
2017-07-03T03:33:46.098Z,11.7
2017-07-03T03:34:23.773Z,11.6
2017-07-03T03:35:01.652Z,11.6
2017-07-03T03:35:39.519Z,11.7
2017-07-03T03:36:17.195Z,11.7
2017-07-03T03:36:55.072Z,11.6
2017-07-03T03:37:33.148Z,11.6
2017-07-03T03:38:11.422Z,11.6
2017-07-03T03:38:49.302Z,11.7
2017-07-03T03:39:27.181Z,11.6
2017-07-03T03:40:04.849Z,11.6
2017-07-03T03:40:42.824Z,11.5
2017-07-03T03:41:20.894Z,11.6
2017-07-03T03:41:58.873Z,11.5
2017-07-03T03:42:37.155Z,11.5
2017-07-03T03:43:15.029Z,11.6
2017-07-03T03:43:53.202Z,11.6
2017-07-03T03:44:30.972Z,11.5
2017-07-03T03:45:08.848Z,11.5
2017-07-03T03:45:46.625Z,11.5
2017-07-03T03:46:26.498Z,11.6
2017-07-03T03:47:04.371Z,11.6
2017-07-03T03:47:42.049Z,11.6
2017-07-03T03:48:19.822Z,11.5
2017-07-03T03:48:57.396Z,11.5
2017-07-03T03:49:35.162Z,11.5
2017-07-03T03:50:13.036Z,11.5
2017-07-03T03:50:50.822Z,11.5
2017-07-03T03:51:28.690Z,11.6
2017-07-03T03:52:06.472Z,11.5
2017-07-03T03:52:44.253Z,11.5
2017-07-03T03:53:21.821Z,11.5
2017-07-03T03:53:59.297Z,11.5
2017-07-03T03:54:36.868Z,11.5
2017-07-03T03:55:14.740Z,11.6
2017-07-03T03:55:52.515Z,11.6
2017-07-03T03:56:31.550Z,11.6
2017-07-03T03:57:09.523Z,11.5
2017-07-03T03:57:47.197Z,11.5
2017-07-03T03:58:24.972Z,11.6
2017-07-03T03:59:02.653Z,11.5
2017-07-03T03:59:40.913Z,11.5
2017-07-03T04:00:18.892Z,11.5
2017-07-03T04:00:56.771Z,11.5
2017-07-03T04:01:34.356Z,11.5
2017-07-03T04:02:12.123Z,11.6
2017-07-03T04:02:50.200Z,11.5
2017-07-03T04:03:27.978Z,11.6
2017-07-03T04:04:05.850Z,11.6
2017-07-03T04:04:43.825Z,11.6
2017-07-03T04:05:21.496Z,11.5
2017-07-03T04:05:59.376Z,11.6
2017-07-03T04:06:37.350Z,11.5
2017-07-03T04:07:15.122Z,11.6
2017-07-03T04:07:53.100Z,11.6
2017-07-03T04:08:31.177Z,11.6
2017-07-03T04:09:09.249Z,11.7
2017-07-03T04:09:47.215Z,11.6
2017-07-03T04:10:25.102Z,11.7
2017-07-03T04:11:03.073Z,11.6
2017-07-03T04:11:41.063Z,11.7
2017-07-03T04:12:18.841Z,11.6
2017-07-03T04:12:56.613Z,11.7
2017-07-03T04:13:34.782Z,11.6
2017-07-03T04:14:12.567Z,11.7
2017-07-03T04:14:50.338Z,11.7
2017-07-03T04:15:28.116Z,11.7
2017-07-03T04:16:06.085Z,11.7
2017-07-03T04:16:44.274Z,11.7
2017-07-03T04:17:22.147Z,11.7
2017-07-03T04:18:00.217Z,11.7
2017-07-03T04:18:38.108Z,11.7
2017-07-03T04:19:16.281Z,11.7
2017-07-03T04:19:54.553Z,11.7
2017-07-03T04:20:32.522Z,11.7
2017-07-03T04:21:10.499Z,11.7
2017-07-03T04:21:48.276Z,11.8
2017-07-03T04:22:26.192Z,11.7
2017-07-03T04:23:03.719Z,11.7
2017-07-03T04:23:41.496Z,11.7
2017-07-03T04:24:19.365Z,11.7
2017-07-03T04:24:57.442Z,11.8
2017-07-03T04:25:35.117Z,11.8
2017-07-03T04:26:12.792Z,11.8
2017-07-03T04:26:50.463Z,11.8
2017-07-03T04:27:28.436Z,11.7
2017-07-03T04:28:06.313Z,11.9
2017-07-03T04:28:43.879Z,11.8
2017-07-03T04:29:21.651Z,11.8
2017-07-03T04:29:59.426Z,11.9
2017-07-03T04:30:37.399Z,11.8
2017-07-03T04:31:15.077Z,11.8
2017-07-03T04:31:52.845Z,11.8
2017-07-03T04:32:30.925Z,11.8
2017-07-03T04:33:08.992Z,11.8
2017-07-03T04:33:46.873Z,11.8
2017-07-03T04:34:25.046Z,12.0
2017-07-03T04:35:02.624Z,11.9
2017-07-03T04:35:40.495Z,12.0
2017-07-03T04:36:18.266Z,12.0
2017-07-03T04:36:56.243Z,11.9
2017-07-03T04:37:34.218Z,12.0
2017-07-03T04:38:11.694Z,12.0
2017-07-03T04:38:49.568Z,12.0
2017-07-03T04:39:27.543Z,11.9
2017-07-03T04:40:05.517Z,12.0
2017-07-03T04:40:43.493Z,12.1
2017-07-03T04:41:21.266Z,12.1
2017-07-03T04:41:59.136Z,12.0
2017-07-03T04:42:37.112Z,12.1
2017-07-03T04:43:15.087Z,12.0
2017-07-03T04:43:52.863Z,12.0
2017-07-03T04:44:30.730Z,12.0
2017-07-03T04:45:08.612Z,12.1
2017-07-03T04:45:46.490Z,12.1
2017-07-03T04:46:24.564Z,12.1
2017-07-03T04:47:02.337Z,12.1
2017-07-03T04:47:40.015Z,12.1
2017-07-03T04:48:18.084Z,12.1
2017-07-03T04:48:55.860Z,12.1
2017-07-03T04:49:33.733Z,12.1
2017-07-03T04:50:11.321Z,12.1
2017-07-03T04:50:49.297Z,12.2
2017-07-03T04:51:27.268Z,12.1
2017-07-03T04:52:05.142Z,12.1
2017-07-03T04:52:43.121Z,12.1
2017-07-03T04:53:20.985Z,12.1
2017-07-03T04:53:58.563Z,12.1
2017-07-03T04:54:36.338Z,12.1
2017-07-03T04:55:14.218Z,12.2
2017-07-03T04:55:52.101Z,12.2
2017-07-03T04:56:30.198Z,12.2
2017-07-03T04:57:07.981Z,12.2
2017-07-03T04:57:45.652Z,12.2
2017-07-03T04:58:23.431Z,12.3
2017-07-03T04:59:01.308Z,12.3
2017-07-03T04:59:39.078Z,12.2
2017-07-03T05:00:17.053Z,12.2
2017-07-03T05:00:54.924Z,12.3
2017-07-03T05:01:32.601Z,12.2
2017-07-03T05:02:10.677Z,12.3
2017-07-03T05:02:48.665Z,12.3
2017-07-03T05:03:26.442Z,12.4
2017-07-03T05:04:04.515Z,12.4
2017-07-03T05:04:42.185Z,12.5
2017-07-03T05:05:19.964Z,12.4
2017-07-03T05:05:57.937Z,12.4
2017-07-03T05:06:36.221Z,12.4
2017-07-03T05:07:14.100Z,12.4
2017-07-03T05:07:52.377Z,12.4
2017-07-03T05:08:30.261Z,12.5
2017-07-03T05:09:08.144Z,12.5
2017-07-03T05:09:45.724Z,12.5
2017-07-03T05:10:23.596Z,12.5
2017-07-03T05:11:01.468Z,12.5
2017-07-03T05:11:39.346Z,12.6
2017-07-03T05:12:17.232Z,12.5
2017-07-03T05:12:54.721Z,12.6
2017-07-03T05:13:32.798Z,12.6
2017-07-03T05:14:11.649Z,12.6
2017-07-03T05:14:49.738Z,12.7
2017-07-03T05:15:27.607Z,12.7
2017-07-03T05:16:05.384Z,12.8
2017-07-03T05:16:42.960Z,12.8
2017-07-03T05:17:20.935Z,12.8
2017-07-03T05:17:58.910Z,12.8
2017-07-03T05:18:36.586Z,12.8
2017-07-03T05:19:14.360Z,12.8
2017-07-03T05:19:52.434Z,13.0
2017-07-03T05:20:30.412Z,13.0
2017-07-03T05:21:08.185Z,13.0
2017-07-03T05:21:45.960Z,12.9
2017-07-03T05:22:23.733Z,13.0
2017-07-03T05:23:01.915Z,13.0
2017-07-03T05:23:39.712Z,13.0
2017-07-03T05:24:17.390Z,13.1
2017-07-03T05:24:55.673Z,13.1
2017-07-03T05:25:33.353Z,13.2
2017-07-03T05:26:11.225Z,13.3
2017-07-03T05:26:49.208Z,13.3
2017-07-03T05:27:27.088Z,13.3
2017-07-03T05:28:05.165Z,13.3
2017-07-03T05:28:42.934Z,13.4
2017-07-03T05:29:20.814Z,13.4
2017-07-03T05:29:58.802Z,13.4
2017-07-03T05:30:36.580Z,13.5
2017-07-03T05:31:14.351Z,13.5
2017-07-03T05:31:52.432Z,13.5
2017-07-03T05:32:30.202Z,13.5
2017-07-03T05:33:08.280Z,13.5
2017-07-03T05:33:46.159Z,13.7
2017-07-03T05:34:24.037Z,13.5
2017-07-03T05:35:01.706Z,13.6
2017-07-03T05:35:39.386Z,13.7
2017-07-03T05:36:17.255Z,13.8
2017-07-03T05:36:55.134Z,13.8
2017-07-03T05:37:33.103Z,13.8
2017-07-03T05:38:10.578Z,14.0
2017-07-03T05:38:48.660Z,13.9
2017-07-03T05:39:26.430Z,13.9
2017-07-03T05:40:04.205Z,14.1
2017-07-03T05:40:42.283Z,14.0
2017-07-03T05:41:20.060Z,14.1
2017-07-03T05:41:57.836Z,14.1
2017-07-03T05:42:35.712Z,14.3
2017-07-03T05:43:13.786Z,14.2
2017-07-03T05:43:51.869Z,14.3
2017-07-03T05:44:29.844Z,14.3
2017-07-03T05:45:07.522Z,14.4
2017-07-03T05:45:45.597Z,14.5
2017-07-03T05:46:23.671Z,14.5
2017-07-03T05:47:01.445Z,14.5
2017-07-03T05:47:39.323Z,14.5
2017-07-03T05:48:17.104Z,14.6
2017-07-03T05:48:54.778Z,14.6
2017-07-03T05:49:32.862Z,14.8
2017-07-03T05:50:10.739Z,14.8
2017-07-03T05:50:49.680Z,14.8
2017-07-03T05:51:27.657Z,14.9
2017-07-03T05:52:05.342Z,15.0
2017-07-03T05:52:43.040Z,15.0
2017-07-03T05:53:20.609Z,15.1
2017-07-03T05:53:58.690Z,15.3
2017-07-03T05:54:36.571Z,15.3
2017-07-03T05:55:14.342Z,15.2
2017-07-03T05:55:52.622Z,15.4
2017-07-03T05:56:31.183Z,15.3
2017-07-03T05:57:09.054Z,15.4
2017-07-03T05:57:47.238Z,15.4
2017-07-03T05:58:25.113Z,15.4
2017-07-03T05:59:02.991Z,15.6
2017-07-03T05:59:41.262Z,15.8
2017-07-03T06:00:19.509Z,15.9
2017-07-03T06:00:58.442Z,16.0
2017-07-03T06:01:36.506Z,16.3
2017-07-03T06:02:14.282Z,16.4
2017-07-03T06:02:52.062Z,16.7
2017-07-03T06:03:29.741Z,17.1
2017-07-03T06:04:07.818Z,17.4
2017-07-03T06:04:45.700Z,17.4
2017-07-03T06:05:23.627Z,17.9
2017-07-03T06:06:01.401Z,18.2
2017-07-03T06:06:39.397Z,18.5
2017-07-03T06:07:17.173Z,18.7
2017-07-03T06:07:54.759Z,18.9
2017-07-03T06:08:32.739Z,19.2
2017-07-03T06:09:10.418Z,19.5
2017-07-03T06:09:48.503Z,19.8
2017-07-03T06:10:26.076Z,20.1
2017-07-03T06:11:03.849Z,20.3
2017-07-03T06:11:42.037Z,20.3
2017-07-03T06:12:19.918Z,20.5
2017-07-03T06:12:57.499Z,20.8
2017-07-03T06:13:35.581Z,21.1
2017-07-03T06:14:13.872Z,21.0
2017-07-03T06:14:51.748Z,21.2
2017-07-03T06:15:29.526Z,21.5
2017-07-03T06:16:07.810Z,21.7
2017-07-03T06:16:45.592Z,22.2
2017-07-03T06:17:23.371Z,22.2
2017-07-03T06:18:01.347Z,22.1
2017-07-03T06:18:39.329Z,22.3
2017-07-03T06:19:17.308Z,22.3
2017-07-03T06:19:55.190Z,22.7
2017-07-03T06:20:33.172Z,23.1
2017-07-03T06:21:11.259Z,23.3
2017-07-03T06:21:48.839Z,23.4
2017-07-03T06:22:26.517Z,23.6
2017-07-03T06:23:04.504Z,23.8
2017-07-03T06:23:42.390Z,23.8
2017-07-03T06:24:20.247Z,23.8
2017-07-03T06:24:57.934Z,24.0
2017-07-03T06:25:35.823Z,24.0
2017-07-03T06:26:13.806Z,23.8
2017-07-03T06:26:51.395Z,24.2
2017-07-03T06:27:28.982Z,24.3
2017-07-03T06:28:06.960Z,24.5
2017-07-03T06:28:45.047Z,24.5
2017-07-03T06:29:22.933Z,24.0
2017-07-03T06:30:00.817Z,24.0
2017-07-03T06:30:38.831Z,24.0
2017-07-03T06:31:16.727Z,23.8
2017-07-03T06:31:54.322Z,23.8
2017-07-03T06:32:32.200Z,23.9
2017-07-03T06:33:10.286Z,23.8
2017-07-03T06:33:48.179Z,23.7
2017-07-03T06:34:25.974Z,23.8
2017-07-03T06:35:03.754Z,24.4
2017-07-03T06:35:41.839Z,24.6
2017-07-03T06:36:19.526Z,24.6
2017-07-03T06:36:57.765Z,24.9
2017-07-03T06:37:35.654Z,25.1
2017-07-03T06:38:13.643Z,25.0
2017-07-03T06:38:51.527Z,25.4
2017-07-03T06:39:29.512Z,25.8
2017-07-03T06:40:07.295Z,26.8
2017-07-03T06:40:45.085Z,27.8
2017-07-03T06:41:23.180Z,28.5
2017-07-03T06:42:01.155Z,28.7
2017-07-03T06:42:39.139Z,29.3
2017-07-03T06:43:17.038Z,29.5
2017-07-03T06:43:54.823Z,29.1
2017-07-03T06:44:32.701Z,29.5
2017-07-03T06:45:10.600Z,29.5
2017-07-03T06:45:48.384Z,30.2
2017-07-03T06:46:26.173Z,29.5
2017-07-03T06:47:03.761Z,29.7
2017-07-03T06:47:41.648Z,29.7
2017-07-03T06:48:19.534Z,29.9
2017-07-03T06:48:57.431Z,30.1
2017-07-03T06:49:35.417Z,30.1
2017-07-03T06:50:13.213Z,30.5
2017-07-03T06:50:50.998Z,30.4
2017-07-03T06:51:28.788Z,30.3
2017-07-03T06:52:06.478Z,30.5
2017-07-03T06:52:44.058Z,30.2
2017-07-03T06:53:22.044Z,29.9
2017-07-03T06:53:59.937Z,29.9
2017-07-03T06:54:37.619Z,30.2
2017-07-03T06:55:15.513Z,30.4
2017-07-03T06:55:53.303Z,30.9
2017-07-03T06:56:31.187Z,30.7
2017-07-03T06:57:09.382Z,30.8
2017-07-03T06:57:47.064Z,31.0
2017-07-03T06:58:24.970Z,31.5
2017-07-03T06:59:02.940Z,31.3
2017-07-03T06:59:40.730Z,31.4
2017-07-03T07:00:18.324Z,31.2
2017-07-03T07:00:56.309Z,31.1
2017-07-03T07:01:34.200Z,31.2
2017-07-03T07:02:12.391Z,31.3
2017-07-03T07:02:50.483Z,31.8
2017-07-03T07:03:28.365Z,31.7
2017-07-03T07:04:06.256Z,31.6
2017-07-03T07:04:43.842Z,32.0
2017-07-03T07:05:21.632Z,32.0
2017-07-03T07:05:59.677Z,31.8
2017-07-03T07:06:37.569Z,31.7
2017-07-03T07:07:15.262Z,31.7
2017-07-03T07:07:52.948Z,31.8
2017-07-03T07:08:30.539Z,31.4
2017-07-03T07:09:08.028Z,31.6
2017-07-03T07:09:45.814Z,31.9
2017-07-03T07:10:23.506Z,31.2
2017-07-03T07:11:01.699Z,31.1
2017-07-03T07:11:39.590Z,30.9
2017-07-03T07:12:17.782Z,30.8
2017-07-03T07:12:55.670Z,30.9
2017-07-03T07:13:33.461Z,31.4
2017-07-03T07:14:11.354Z,31.7
2017-07-03T07:14:49.139Z,31.5
2017-07-03T07:15:27.254Z,30.7
2017-07-03T07:16:05.145Z,30.7
2017-07-03T07:16:43.176Z,30.4
2017-07-03T07:17:21.061Z,29.7
2017-07-03T07:17:58.953Z,28.8
2017-07-03T07:18:37.051Z,28.4
2017-07-03T07:19:14.937Z,27.2
2017-07-03T07:19:53.026Z,26.4
2017-07-03T07:20:31.019Z,25.9
2017-07-03T07:21:09.110Z,25.9
2017-07-03T07:21:46.901Z,26.1
2017-07-03T07:22:24.690Z,26.0
2017-07-03T07:23:02.682Z,26.0
2017-07-03T07:23:40.794Z,26.2
2017-07-03T07:24:18.691Z,26.1
2017-07-03T07:24:56.373Z,26.0
2017-07-03T07:25:34.162Z,26.1
2017-07-03T07:26:11.949Z,26.2
2017-07-03T07:26:49.545Z,26.1
2017-07-03T07:27:27.530Z,26.6
2017-07-03T07:28:05.314Z,27.1
2017-07-03T07:28:43.208Z,27.9
2017-07-03T07:29:21.214Z,28.5
2017-07-03T07:29:58.899Z,28.6
2017-07-03T07:30:37.000Z,28.8
2017-07-03T07:31:14.975Z,28.1
2017-07-03T07:31:52.764Z,28.2
2017-07-03T07:32:30.450Z,28.0
2017-07-03T07:33:08.445Z,27.9
2017-07-03T07:33:46.142Z,27.3
2017-07-03T07:34:23.627Z,27.0
2017-07-03T07:35:01.223Z,27.7
2017-07-03T07:35:39.213Z,27.7
2017-07-03T07:36:18.028Z,27.4
2017-07-03T07:36:56.014Z,27.6
2017-07-03T07:37:33.905Z,27.7
2017-07-03T07:38:11.590Z,28.4
2017-07-03T07:38:49.376Z,28.6
2017-07-03T07:39:27.466Z,28.4
2017-07-03T07:40:05.251Z,28.0
2017-07-03T07:40:43.045Z,28.0
2017-07-03T07:41:21.031Z,28.0
2017-07-03T07:41:59.120Z,28.1
2017-07-03T07:42:37.515Z,28.1
2017-07-03T07:43:15.508Z,28.4
2017-07-03T07:43:53.090Z,28.5
2017-07-03T07:44:30.680Z,28.8
2017-07-03T07:45:08.277Z,29.1
2017-07-03T07:45:46.275Z,29.2
2017-07-03T07:46:24.088Z,29.0
2017-07-03T07:47:01.989Z,28.8
2017-07-03T07:47:39.871Z,28.6
2017-07-03T07:48:18.069Z,28.4
2017-07-03T07:48:55.769Z,28.0
2017-07-03T07:49:33.857Z,28.4
2017-07-03T07:50:11.847Z,28.6
2017-07-03T07:50:50.043Z,28.3
2017-07-03T07:51:27.839Z,28.5
2017-07-03T07:52:05.927Z,29.0
2017-07-03T07:52:44.011Z,29.2
2017-07-03T07:53:22.207Z,29.2
2017-07-03T07:53:59.799Z,29.3
2017-07-03T07:54:37.787Z,29.5
2017-07-03T07:55:15.597Z,29.7
2017-07-03T07:55:53.597Z,29.5
2017-07-03T07:56:31.284Z,29.3
2017-07-03T07:57:08.779Z,29.8
2017-07-03T07:57:46.490Z,29.7
2017-07-03T07:58:24.587Z,29.3
2017-07-03T07:59:02.271Z,29.5
2017-07-03T07:59:40.835Z,29.8
2017-07-03T08:00:19.077Z,29.9
2017-07-03T08:00:57.069Z,29.8
2017-07-03T08:01:34.661Z,30.1
2017-07-03T08:02:12.860Z,30.7
2017-07-03T08:02:50.651Z,30.8
2017-07-03T08:03:28.541Z,31.0
2017-07-03T08:04:06.442Z,30.9
2017-07-03T08:04:44.033Z,30.5
2017-07-03T08:05:21.631Z,30.8
2017-07-03T08:05:59.330Z,30.4
2017-07-03T08:06:37.425Z,30.5
2017-07-03T08:07:15.617Z,30.6
2017-07-03T08:07:53.308Z,30.2
2017-07-03T08:08:30.797Z,30.1
2017-07-03T08:09:08.993Z,30.1
2017-07-03T08:09:47.089Z,30.6
2017-07-03T08:10:24.979Z,30.8
2017-07-03T08:11:02.773Z,30.9
2017-07-03T08:11:40.566Z,31.4
2017-07-03T08:12:18.354Z,32.1
2017-07-03T08:12:56.158Z,31.6
2017-07-03T08:13:33.764Z,31.3
2017-07-03T08:14:11.648Z,31.3
2017-07-03T08:14:49.338Z,31.8
2017-07-03T08:15:27.439Z,31.6
2017-07-03T08:16:05.423Z,31.8
2017-07-03T08:16:43.434Z,31.5
2017-07-03T08:17:21.146Z,31.8
2017-07-03T08:17:59.144Z,32.1
2017-07-03T08:18:37.028Z,32.2
2017-07-03T08:19:15.122Z,32.3
2017-07-03T08:19:53.014Z,32.1
2017-07-03T08:20:30.825Z,32.0
2017-07-03T08:21:08.613Z,31.6
2017-07-03T08:21:46.501Z,32.0
2017-07-03T08:22:24.209Z,31.9
2017-07-03T08:23:01.908Z,31.4
2017-07-03T08:23:39.793Z,31.4
2017-07-03T08:24:17.689Z,32.0